sensor_id;sensor_type;location;lat;lon;timestamp;P1;durP1;ratioP1;P2;durP2;ratioP2
76202;SDS011;64985;46.364;17.008;2024-01-15T00:01:04;71.22;;;26.10;;
76202;SDS011;64985;46.364;17.008;2024-01-15T00:04:07;69.00;;;25.67;;
76202;SDS011;64985;46.364;17.008;2024-01-15T00:07:09;67.03;;;24.95;;
76202;SDS011;64985;46.364;17.008;2024-01-15T00:10:11;58.90;;;23.45;;
76202;SDS011;64985;46.364;17.008;2024-01-15T00:13:14;65.10;;;24.90;;
76202;SDS011;64985;46.364;17.008;2024-01-15T00:16:16;63.40;;;23.40;;
76202;SDS011;64985;46.364;17.008;2024-01-15T00:19:18;79.13;;;26.73;;
76202;SDS011;64985;46.364;17.008;2024-01-15T00:22:21;89.13;;;31.80;;
76202;SDS011;64985;46.364;17.008;2024-01-15T00:25:23;95.13;;;34.88;;
76202;SDS011;64985;46.364;17.008;2024-01-15T00:28:25;93.10;;;33.15;;
76202;SDS011;64985;46.364;17.008;2024-01-15T00:31:28;99.93;;;35.00;;
76202;SDS011;64985;46.364;17.008;2024-01-15T00:34:31;101.93;;;35.13;;
76202;SDS011;64985;46.364;17.008;2024-01-15T00:37:34;104.47;;;35.35;;
76202;SDS011;64985;46.364;17.008;2024-01-15T00:40:36;99.05;;;34.72;;
76202;SDS011;64985;46.364;17.008;2024-01-15T00:43:39;97.55;;;32.92;;
76202;SDS011;64985;46.364;17.008;2024-01-15T00:46:42;93.53;;;35.00;;
76202;SDS011;64985;46.364;17.008;2024-01-15T00:49:48;100.97;;;33.13;;
76202;SDS011;64985;46.364;17.008;2024-01-15T00:52:50;88.88;;;32.45;;
76202;SDS011;64985;46.364;17.008;2024-01-15T00:55:53;91.38;;;32.45;;
76202;SDS011;64985;46.364;17.008;2024-01-15T00:58:55;85.50;;;30.67;;
76202;SDS011;64985;46.364;17.008;2024-01-15T01:01:58;87.22;;;30.50;;
76202;SDS011;64985;46.364;17.008;2024-01-15T01:05:00;80.45;;;30.40;;
76202;SDS011;64985;46.364;17.008;2024-01-15T01:08:03;77.40;;;31.58;;
76202;SDS011;64985;46.364;17.008;2024-01-15T01:11:05;93.18;;;32.55;;
76202;SDS011;64985;46.364;17.008;2024-01-15T01:14:08;100.30;;;34.65;;
76202;SDS011;64985;46.364;17.008;2024-01-15T01:17:10;106.88;;;38.10;;
76202;SDS011;64985;46.364;17.008;2024-01-15T01:20:13;118.03;;;41.25;;
76202;SDS011;64985;46.364;17.008;2024-01-15T01:23:19;123.72;;;43.47;;
76202;SDS011;64985;46.364;17.008;2024-01-15T01:26:21;124.88;;;42.17;;
76202;SDS011;64985;46.364;17.008;2024-01-15T01:29:24;126.50;;;42.55;;
76202;SDS011;64985;46.364;17.008;2024-01-15T01:32:28;113.80;;;41.08;;
76202;SDS011;64985;46.364;17.008;2024-01-15T01:35:30;115.47;;;40.05;;
76202;SDS011;64985;46.364;17.008;2024-01-15T01:38:32;122.90;;;42.92;;
76202;SDS011;64985;46.364;17.008;2024-01-15T01:41:35;127.00;;;42.80;;
76202;SDS011;64985;46.364;17.008;2024-01-15T01:44:37;132.63;;;45.58;;
76202;SDS011;64985;46.364;17.008;2024-01-15T01:47:40;127.93;;;42.95;;
76202;SDS011;64985;46.364;17.008;2024-01-15T01:50:44;144.88;;;46.70;;
76202;SDS011;64985;46.364;17.008;2024-01-15T01:53:46;134.43;;;44.28;;
76202;SDS011;64985;46.364;17.008;2024-01-15T01:56:49;130.13;;;43.53;;
76202;SDS011;64985;46.364;17.008;2024-01-15T01:59:52;150.93;;;47.38;;
76202;SDS011;64985;46.364;17.008;2024-01-15T02:02:55;187.05;;;61.47;;
76202;SDS011;64985;46.364;17.008;2024-01-15T02:05:58;160.60;;;52.45;;
76202;SDS011;64985;46.364;17.008;2024-01-15T02:09:03;148.65;;;48.15;;
76202;SDS011;64985;46.364;17.008;2024-01-15T02:12:07;147.32;;;48.40;;
76202;SDS011;64985;46.364;17.008;2024-01-15T02:15:09;146.70;;;46.08;;
76202;SDS011;64985;46.364;17.008;2024-01-15T02:18:11;144.18;;;47.65;;
76202;SDS011;64985;46.364;17.008;2024-01-15T02:21:15;155.60;;;52.03;;
76202;SDS011;64985;46.364;17.008;2024-01-15T02:24:17;158.73;;;47.78;;
76202;SDS011;64985;46.364;17.008;2024-01-15T02:27:20;147.07;;;46.55;;
76202;SDS011;64985;46.364;17.008;2024-01-15T02:30:22;145.95;;;47.95;;
76202;SDS011;64985;46.364;17.008;2024-01-15T02:33:27;145.27;;;45.70;;
76202;SDS011;64985;46.364;17.008;2024-01-15T02:36:30;160.23;;;52.88;;
76202;SDS011;64985;46.364;17.008;2024-01-15T02:39:32;156.38;;;49.85;;
76202;SDS011;64985;46.364;17.008;2024-01-15T02:42:34;160.35;;;52.67;;
76202;SDS011;64985;46.364;17.008;2024-01-15T02:45:37;164.75;;;51.03;;
76202;SDS011;64985;46.364;17.008;2024-01-15T02:48:39;154.73;;;51.50;;
76202;SDS011;64985;46.364;17.008;2024-01-15T02:51:42;156.68;;;51.97;;
76202;SDS011;64985;46.364;17.008;2024-01-15T02:54:44;153.43;;;52.53;;
76202;SDS011;64985;46.364;17.008;2024-01-15T02:57:46;159.13;;;52.63;;
76202;SDS011;64985;46.364;17.008;2024-01-15T03:00:49;154.90;;;50.83;;
76202;SDS011;64985;46.364;17.008;2024-01-15T03:03:51;137.05;;;47.42;;
76202;SDS011;64985;46.364;17.008;2024-01-15T03:06:53;142.70;;;47.80;;
76202;SDS011;64985;46.364;17.008;2024-01-15T03:09:55;142.40;;;48.00;;
76202;SDS011;64985;46.364;17.008;2024-01-15T03:12:57;142.27;;;50.70;;
76202;SDS011;64985;46.364;17.008;2024-01-15T03:16:00;154.68;;;51.47;;
76202;SDS011;64985;46.364;17.008;2024-01-15T03:19:02;159.52;;;53.10;;
76202;SDS011;64985;46.364;17.008;2024-01-15T03:22:04;179.95;;;57.00;;
76202;SDS011;64985;46.364;17.008;2024-01-15T03:25:06;177.05;;;56.88;;
76202;SDS011;64985;46.364;17.008;2024-01-15T03:28:09;168.55;;;54.40;;
76202;SDS011;64985;46.364;17.008;2024-01-15T03:31:11;165.02;;;53.55;;
76202;SDS011;64985;46.364;17.008;2024-01-15T03:34:14;171.23;;;54.88;;
76202;SDS011;64985;46.364;17.008;2024-01-15T03:37:16;162.35;;;54.15;;
76202;SDS011;64985;46.364;17.008;2024-01-15T03:40:18;169.88;;;55.63;;
76202;SDS011;64985;46.364;17.008;2024-01-15T03:43:24;177.52;;;58.92;;
76202;SDS011;64985;46.364;17.008;2024-01-15T03:46:26;172.75;;;56.30;;
76202;SDS011;64985;46.364;17.008;2024-01-15T03:49:29;174.70;;;56.55;;
76202;SDS011;64985;46.364;17.008;2024-01-15T03:52:31;165.88;;;54.92;;
76202;SDS011;64985;46.364;17.008;2024-01-15T03:55:34;150.45;;;54.10;;
76202;SDS011;64985;46.364;17.008;2024-01-15T03:58:36;161.10;;;54.63;;
76202;SDS011;64985;46.364;17.008;2024-01-15T04:01:38;154.30;;;53.70;;
76202;SDS011;64985;46.364;17.008;2024-01-15T04:04:42;153.57;;;53.97;;
76202;SDS011;64985;46.364;17.008;2024-01-15T04:07:45;172.55;;;56.65;;
76202;SDS011;64985;46.364;17.008;2024-01-15T04:10:47;190.85;;;66.32;;
76202;SDS011;64985;46.364;17.008;2024-01-15T04:13:49;174.98;;;61.08;;
76202;SDS011;64985;46.364;17.008;2024-01-15T04:16:51;187.95;;;62.88;;
76202;SDS011;64985;46.364;17.008;2024-01-15T04:19:54;192.18;;;65.50;;
76202;SDS011;64985;46.364;17.008;2024-01-15T04:22:57;173.32;;;58.20;;
76202;SDS011;64985;46.364;17.008;2024-01-15T04:25:59;177.30;;;58.85;;
76202;SDS011;64985;46.364;17.008;2024-01-15T04:29:01;153.68;;;54.75;;
76202;SDS011;64985;46.364;17.008;2024-01-15T04:32:03;163.75;;;56.58;;
76202;SDS011;64985;46.364;17.008;2024-01-15T04:35:06;164.65;;;56.63;;
76202;SDS011;64985;46.364;17.008;2024-01-15T04:38:08;153.80;;;53.67;;
76202;SDS011;64985;46.364;17.008;2024-01-15T04:41:12;155.52;;;54.15;;
76202;SDS011;64985;46.364;17.008;2024-01-15T04:44:14;162.13;;;56.95;;
76202;SDS011;64985;46.364;17.008;2024-01-15T04:47:17;161.55;;;58.58;;
76202;SDS011;64985;46.364;17.008;2024-01-15T04:50:19;200.60;;;66.70;;
76202;SDS011;64985;46.364;17.008;2024-01-15T04:53:21;192.82;;;66.28;;
76202;SDS011;64985;46.364;17.008;2024-01-15T04:56:24;215.40;;;69.28;;
76202;SDS011;64985;46.364;17.008;2024-01-15T04:59:26;191.77;;;67.47;;
76202;SDS011;64985;46.364;17.008;2024-01-15T05:02:28;181.57;;;60.28;;
76202;SDS011;64985;46.364;17.008;2024-01-15T05:05:30;172.80;;;59.05;;
76202;SDS011;64985;46.364;17.008;2024-01-15T05:08:33;167.85;;;56.55;;
76202;SDS011;64985;46.364;17.008;2024-01-15T05:11:35;164.63;;;60.78;;
76202;SDS011;64985;46.364;17.008;2024-01-15T05:14:37;199.73;;;68.70;;
76202;SDS011;64985;46.364;17.008;2024-01-15T05:17:39;197.98;;;70.95;;
76202;SDS011;64985;46.364;17.008;2024-01-15T05:20:41;199.73;;;72.15;;
76202;SDS011;64985;46.364;17.008;2024-01-15T05:23:44;205.52;;;70.72;;
76202;SDS011;64985;46.364;17.008;2024-01-15T05:26:46;209.02;;;67.75;;
76202;SDS011;64985;46.364;17.008;2024-01-15T05:29:49;178.38;;;58.75;;
76202;SDS011;64985;46.364;17.008;2024-01-15T05:32:51;183.43;;;62.85;;
76202;SDS011;64985;46.364;17.008;2024-01-15T05:35:53;187.05;;;63.92;;
76202;SDS011;64985;46.364;17.008;2024-01-15T05:38:56;187.18;;;65.70;;
76202;SDS011;64985;46.364;17.008;2024-01-15T05:41:58;197.45;;;68.97;;
76202;SDS011;64985;46.364;17.008;2024-01-15T05:45:01;194.73;;;67.07;;
76202;SDS011;64985;46.364;17.008;2024-01-15T05:48:06;204.68;;;74.45;;
76202;SDS011;64985;46.364;17.008;2024-01-15T05:51:08;189.93;;;68.25;;
76202;SDS011;64985;46.364;17.008;2024-01-15T05:54:11;194.32;;;69.07;;
76202;SDS011;64985;46.364;17.008;2024-01-15T05:57:13;198.82;;;66.63;;
76202;SDS011;64985;46.364;17.008;2024-01-15T06:00:16;192.95;;;66.88;;
76202;SDS011;64985;46.364;17.008;2024-01-15T06:03:18;189.93;;;67.03;;
76202;SDS011;64985;46.364;17.008;2024-01-15T06:06:21;196.15;;;67.78;;
76202;SDS011;64985;46.364;17.008;2024-01-15T06:09:23;191.43;;;67.72;;
76202;SDS011;64985;46.364;17.008;2024-01-15T06:12:25;192.60;;;67.07;;
76202;SDS011;64985;46.364;17.008;2024-01-15T06:15:29;190.38;;;66.47;;
76202;SDS011;64985;46.364;17.008;2024-01-15T06:18:32;190.90;;;66.03;;
76202;SDS011;64985;46.364;17.008;2024-01-15T06:21:34;195.32;;;68.78;;
76202;SDS011;64985;46.364;17.008;2024-01-15T06:24:36;185.90;;;65.28;;
76202;SDS011;64985;46.364;17.008;2024-01-15T06:27:39;192.50;;;66.60;;
76202;SDS011;64985;46.364;17.008;2024-01-15T06:30:41;189.18;;;65.07;;
76202;SDS011;64985;46.364;17.008;2024-01-15T06:33:44;188.52;;;64.22;;
76202;SDS011;64985;46.364;17.008;2024-01-15T06:36:49;189.80;;;64.80;;
76202;SDS011;64985;46.364;17.008;2024-01-15T06:39:51;182.30;;;63.28;;
76202;SDS011;64985;46.364;17.008;2024-01-15T06:42:53;180.27;;;62.85;;
76202;SDS011;64985;46.364;17.008;2024-01-15T06:45:56;182.23;;;62.13;;
76202;SDS011;64985;46.364;17.008;2024-01-15T06:48:58;185.23;;;64.95;;
76202;SDS011;64985;46.364;17.008;2024-01-15T06:52:01;179.50;;;63.25;;
76202;SDS011;64985;46.364;17.008;2024-01-15T06:55:03;183.48;;;62.17;;
76202;SDS011;64985;46.364;17.008;2024-01-15T06:58:07;166.10;;;60.88;;
76202;SDS011;64985;46.364;17.008;2024-01-15T07:01:10;184.18;;;61.95;;
76202;SDS011;64985;46.364;17.008;2024-01-15T07:04:12;182.88;;;63.53;;
76202;SDS011;64985;46.364;17.008;2024-01-15T07:07:15;183.32;;;63.40;;
76202;SDS011;64985;46.364;17.008;2024-01-15T07:10:17;175.02;;;60.65;;
76202;SDS011;64985;46.364;17.008;2024-01-15T07:13:19;175.38;;;61.17;;
76202;SDS011;64985;46.364;17.008;2024-01-15T07:16:21;172.10;;;61.55;;
76202;SDS011;64985;46.364;17.008;2024-01-15T07:19:38;173.43;;;59.70;;
76202;SDS011;64985;46.364;17.008;2024-01-15T07:22:40;181.05;;;62.95;;
76202;SDS011;64985;46.364;17.008;2024-01-15T07:25:43;205.25;;;71.18;;
76202;SDS011;64985;46.364;17.008;2024-01-15T07:28:45;193.23;;;69.93;;
76202;SDS011;64985;46.364;17.008;2024-01-15T07:31:50;193.05;;;67.28;;
76202;SDS011;64985;46.364;17.008;2024-01-15T07:34:54;192.57;;;67.07;;
76202;SDS011;64985;46.364;17.008;2024-01-15T07:37:56;191.13;;;67.32;;
76202;SDS011;64985;46.364;17.008;2024-01-15T07:40:59;202.35;;;71.63;;
76202;SDS011;64985;46.364;17.008;2024-01-15T07:44:01;187.88;;;66.72;;
76202;SDS011;64985;46.364;17.008;2024-01-15T07:47:04;275.55;;;97.78;;
76202;SDS011;64985;46.364;17.008;2024-01-15T07:50:06;258.40;;;92.50;;
76202;SDS011;64985;46.364;17.008;2024-01-15T07:53:09;273.80;;;100.13;;
76202;SDS011;64985;46.364;17.008;2024-01-15T07:56:12;246.05;;;91.38;;
76202;SDS011;64985;46.364;17.008;2024-01-15T07:59:14;212.52;;;81.25;;
76202;SDS011;64985;46.364;17.008;2024-01-15T08:02:16;213.77;;;77.35;;
76202;SDS011;64985;46.364;17.008;2024-01-15T08:05:18;205.52;;;77.47;;
76202;SDS011;64985;46.364;17.008;2024-01-15T08:08:20;203.77;;;77.85;;
76202;SDS011;64985;46.364;17.008;2024-01-15T08:11:23;217.73;;;80.20;;
76202;SDS011;64985;46.364;17.008;2024-01-15T08:14:25;233.15;;;85.45;;
76202;SDS011;64985;46.364;17.008;2024-01-15T08:17:27;213.05;;;79.95;;
76202;SDS011;64985;46.364;17.008;2024-01-15T08:20:30;214.38;;;76.07;;
76202;SDS011;64985;46.364;17.008;2024-01-15T08:23:34;217.60;;;76.55;;
76202;SDS011;64985;46.364;17.008;2024-01-15T08:26:36;200.27;;;74.85;;
76202;SDS011;64985;46.364;17.008;2024-01-15T08:29:39;202.48;;;74.68;;
76202;SDS011;64985;46.364;17.008;2024-01-15T08:32:41;202.35;;;71.47;;
76202;SDS011;64985;46.364;17.008;2024-01-15T08:35:44;205.50;;;76.25;;
76202;SDS011;64985;46.364;17.008;2024-01-15T08:38:47;190.85;;;70.00;;
76202;SDS011;64985;46.364;17.008;2024-01-15T08:41:49;192.90;;;69.80;;
76202;SDS011;64985;46.364;17.008;2024-01-15T08:44:51;185.45;;;69.72;;
76202;SDS011;64985;46.364;17.008;2024-01-15T08:47:54;188.07;;;66.80;;
76202;SDS011;64985;46.364;17.008;2024-01-15T08:50:56;174.80;;;64.75;;
76202;SDS011;64985;46.364;17.008;2024-01-15T08:53:58;166.20;;;63.20;;
76202;SDS011;64985;46.364;17.008;2024-01-15T08:57:00;178.73;;;62.42;;
76202;SDS011;64985;46.364;17.008;2024-01-15T09:00:03;166.90;;;60.33;;
76202;SDS011;64985;46.364;17.008;2024-01-15T09:03:08;166.80;;;60.92;;
76202;SDS011;64985;46.364;17.008;2024-01-15T09:06:10;160.52;;;60.47;;
76202;SDS011;64985;46.364;17.008;2024-01-15T09:09:13;169.65;;;61.42;;
76202;SDS011;64985;46.364;17.008;2024-01-15T09:12:19;153.45;;;59.78;;
76202;SDS011;64985;46.364;17.008;2024-01-15T09:15:22;160.43;;;60.33;;
76202;SDS011;64985;46.364;17.008;2024-01-15T09:18:24;180.93;;;65.15;;
76202;SDS011;64985;46.364;17.008;2024-01-15T09:21:27;183.15;;;66.95;;
76202;SDS011;64985;46.364;17.008;2024-01-15T09:24:29;190.23;;;70.82;;
76202;SDS011;64985;46.364;17.008;2024-01-15T09:27:51;172.77;;;68.13;;
76202;SDS011;64985;46.364;17.008;2024-01-15T09:30:53;141.05;;;58.30;;
76202;SDS011;64985;46.364;17.008;2024-01-15T09:33:56;132.15;;;54.08;;
76202;SDS011;64985;46.364;17.008;2024-01-15T09:36:59;132.90;;;54.38;;
76202;SDS011;64985;46.364;17.008;2024-01-15T09:40:01;120.55;;;49.58;;
76202;SDS011;64985;46.364;17.008;2024-01-15T09:43:05;127.80;;;51.08;;
76202;SDS011;64985;46.364;17.008;2024-01-15T09:46:07;120.80;;;48.50;;
76202;SDS011;64985;46.364;17.008;2024-01-15T09:49:10;119.70;;;47.72;;
76202;SDS011;64985;46.364;17.008;2024-01-15T09:52:13;109.75;;;44.15;;
76202;SDS011;64985;46.364;17.008;2024-01-15T09:55:18;101.50;;;44.05;;
76202;SDS011;64985;46.364;17.008;2024-01-15T09:58:20;97.40;;;41.20;;
76202;SDS011;64985;46.364;17.008;2024-01-15T10:01:23;107.47;;;45.40;;
76202;SDS011;64985;46.364;17.008;2024-01-15T10:04:26;105.47;;;44.90;;
76202;SDS011;64985;46.364;17.008;2024-01-15T10:07:29;101.25;;;41.72;;
76202;SDS011;64985;46.364;17.008;2024-01-15T10:10:35;100.70;;;43.13;;
76202;SDS011;64985;46.364;17.008;2024-01-15T10:13:38;85.80;;;36.40;;
76202;SDS011;64985;46.364;17.008;2024-01-15T10:16:42;78.20;;;34.80;;
76202;SDS011;64985;46.364;17.008;2024-01-15T10:19:45;78.30;;;35.58;;
76202;SDS011;64985;46.364;17.008;2024-01-15T10:22:51;80.88;;;36.75;;
76202;SDS011;64985;46.364;17.008;2024-01-15T10:25:53;80.07;;;36.63;;
76202;SDS011;64985;46.364;17.008;2024-01-15T10:28:55;49.72;;;23.15;;
76202;SDS011;64985;46.364;17.008;2024-01-15T10:31:58;51.65;;;23.23;;
76202;SDS011;64985;46.364;17.008;2024-01-15T10:35:01;50.95;;;24.02;;
76202;SDS011;64985;46.364;17.008;2024-01-15T10:38:04;51.55;;;22.33;;
76202;SDS011;64985;46.364;17.008;2024-01-15T10:41:07;44.65;;;21.85;;
76202;SDS011;64985;46.364;17.008;2024-01-15T10:44:10;50.25;;;22.80;;
76202;SDS011;64985;46.364;17.008;2024-01-15T10:47:12;47.65;;;22.55;;
76202;SDS011;64985;46.364;17.008;2024-01-15T10:50:15;52.63;;;25.10;;
76202;SDS011;64985;46.364;17.008;2024-01-15T10:53:17;52.63;;;23.48;;
76202;SDS011;64985;46.364;17.008;2024-01-15T10:56:21;54.45;;;24.25;;
76202;SDS011;64985;46.364;17.008;2024-01-15T10:59:24;56.35;;;25.30;;
76202;SDS011;64985;46.364;17.008;2024-01-15T11:02:27;50.72;;;24.52;;
76202;SDS011;64985;46.364;17.008;2024-01-15T11:05:32;48.70;;;23.42;;
76202;SDS011;64985;46.364;17.008;2024-01-15T11:08:36;50.67;;;24.13;;
76202;SDS011;64985;46.364;17.008;2024-01-15T11:11:44;56.10;;;25.27;;
76202;SDS011;64985;46.364;17.008;2024-01-15T11:14:51;57.72;;;26.48;;
76202;SDS011;64985;46.364;17.008;2024-01-15T11:17:59;64.07;;;29.42;;
76202;SDS011;64985;46.364;17.008;2024-01-15T11:24:33;72.55;;;30.75;;
76202;SDS011;64985;46.364;17.008;2024-01-15T11:27:40;85.10;;;35.42;;
76202;SDS011;64985;46.364;17.008;2024-01-15T11:30:46;83.68;;;35.65;;
76202;SDS011;64985;46.364;17.008;2024-01-15T11:33:50;88.35;;;36.63;;
76202;SDS011;64985;46.364;17.008;2024-01-15T11:39:55;84.50;;;36.13;;
76202;SDS011;64985;46.364;17.008;2024-01-15T11:43:04;230.85;;;93.32;;
76202;SDS011;64985;46.364;17.008;2024-01-15T11:46:11;151.45;;;58.17;;
76202;SDS011;64985;46.364;17.008;2024-01-15T11:49:14;89.63;;;36.22;;
76202;SDS011;64985;46.364;17.008;2024-01-15T11:53:01;77.13;;;33.85;;
76202;SDS011;64985;46.364;17.008;2024-01-15T11:56:11;76.88;;;33.92;;
76202;SDS011;64985;46.364;17.008;2024-01-15T11:59:17;82.07;;;35.50;;
76202;SDS011;64985;46.364;17.008;2024-01-15T12:02:19;81.57;;;33.92;;
76202;SDS011;64985;46.364;17.008;2024-01-15T12:05:22;81.03;;;35.67;;
76202;SDS011;64985;46.364;17.008;2024-01-15T12:08:25;71.47;;;31.58;;
76202;SDS011;64985;46.364;17.008;2024-01-15T12:11:28;93.20;;;38.28;;
76202;SDS011;64985;46.364;17.008;2024-01-15T12:14:32;74.20;;;32.08;;
76202;SDS011;64985;46.364;17.008;2024-01-15T12:17:36;82.28;;;35.30;;
76202;SDS011;64985;46.364;17.008;2024-01-15T12:20:39;72.18;;;31.75;;
76202;SDS011;64985;46.364;17.008;2024-01-15T12:23:42;69.70;;;30.30;;
76202;SDS011;64985;46.364;17.008;2024-01-15T12:26:44;65.53;;;30.65;;
76202;SDS011;64985;46.364;17.008;2024-01-15T12:29:46;65.82;;;29.88;;
76202;SDS011;64985;46.364;17.008;2024-01-15T12:32:48;96.15;;;42.67;;
76202;SDS011;64985;46.364;17.008;2024-01-15T12:35:54;77.20;;;34.13;;
76202;SDS011;64985;46.364;17.008;2024-01-15T12:38:59;74.13;;;31.23;;
76202;SDS011;64985;46.364;17.008;2024-01-15T12:42:02;74.30;;;33.70;;
76202;SDS011;64985;46.364;17.008;2024-01-15T12:45:05;75.65;;;34.28;;
76202;SDS011;64985;46.364;17.008;2024-01-15T12:48:08;65.70;;;29.60;;
76202;SDS011;64985;46.364;17.008;2024-01-15T12:51:11;61.65;;;29.50;;
76202;SDS011;64985;46.364;17.008;2024-01-15T12:54:13;64.97;;;30.40;;
76202;SDS011;64985;46.364;17.008;2024-01-15T12:57:16;62.60;;;28.30;;
76202;SDS011;64985;46.364;17.008;2024-01-15T13:00:18;63.53;;;26.83;;
76202;SDS011;64985;46.364;17.008;2024-01-15T13:03:22;62.90;;;28.08;;
76202;SDS011;64985;46.364;17.008;2024-01-15T13:06:24;63.75;;;28.27;;
76202;SDS011;64985;46.364;17.008;2024-01-15T13:09:27;61.83;;;28.23;;
76202;SDS011;64985;46.364;17.008;2024-01-15T13:12:29;72.40;;;31.05;;
76202;SDS011;64985;46.364;17.008;2024-01-15T13:15:32;69.72;;;30.98;;
76202;SDS011;64985;46.364;17.008;2024-01-15T13:18:34;66.75;;;29.38;;
76202;SDS011;64985;46.364;17.008;2024-01-15T13:21:37;75.63;;;31.50;;
76202;SDS011;64985;46.364;17.008;2024-01-15T13:24:42;67.10;;;29.30;;
76202;SDS011;64985;46.364;17.008;2024-01-15T13:27:45;63.75;;;27.42;;
76202;SDS011;64985;46.364;17.008;2024-01-15T13:30:48;64.47;;;29.25;;
76202;SDS011;64985;46.364;17.008;2024-01-15T13:33:51;69.50;;;29.70;;
76202;SDS011;64985;46.364;17.008;2024-01-15T13:36:53;64.40;;;28.90;;
76202;SDS011;64985;46.364;17.008;2024-01-15T13:39:55;69.25;;;30.77;;
76202;SDS011;64985;46.364;17.008;2024-01-15T13:42:58;71.13;;;31.77;;
76202;SDS011;64985;46.364;17.008;2024-01-15T13:46:01;93.18;;;38.92;;
76202;SDS011;64985;46.364;17.008;2024-01-15T13:49:06;147.65;;;53.25;;
76202;SDS011;64985;46.364;17.008;2024-01-15T13:52:09;118.93;;;46.65;;
76202;SDS011;64985;46.364;17.008;2024-01-15T13:55:11;106.03;;;45.92;;
76202;SDS011;64985;46.364;17.008;2024-01-15T13:58:14;209.18;;;79.65;;
76202;SDS011;64985;46.364;17.008;2024-01-15T14:01:17;162.60;;;61.33;;
76202;SDS011;64985;46.364;17.008;2024-01-15T14:04:20;111.25;;;45.28;;
76202;SDS011;64985;46.364;17.008;2024-01-15T14:07:23;118.05;;;46.70;;
76202;SDS011;64985;46.364;17.008;2024-01-15T14:10:25;106.15;;;44.38;;
76202;SDS011;64985;46.364;17.008;2024-01-15T14:13:27;105.88;;;44.63;;
76202;SDS011;64985;46.364;17.008;2024-01-15T14:16:30;112.85;;;44.47;;
76202;SDS011;64985;46.364;17.008;2024-01-15T14:19:32;101.00;;;40.75;;
76202;SDS011;64985;46.364;17.008;2024-01-15T14:22:35;99.32;;;41.75;;
76202;SDS011;64985;46.364;17.008;2024-01-15T14:25:37;108.30;;;43.10;;
76202;SDS011;64985;46.364;17.008;2024-01-15T14:28:41;108.53;;;43.90;;
76202;SDS011;64985;46.364;17.008;2024-01-15T14:31:43;116.88;;;46.40;;
76202;SDS011;64985;46.364;17.008;2024-01-15T14:34:46;113.70;;;45.90;;
76202;SDS011;64985;46.364;17.008;2024-01-15T14:37:49;109.15;;;45.33;;
76202;SDS011;64985;46.364;17.008;2024-01-15T14:40:52;110.88;;;46.72;;
76202;SDS011;64985;46.364;17.008;2024-01-15T14:43:54;108.60;;;45.83;;
76202;SDS011;64985;46.364;17.008;2024-01-15T14:46:59;115.38;;;45.45;;
76202;SDS011;64985;46.364;17.008;2024-01-15T14:50:01;127.45;;;50.72;;
76202;SDS011;64985;46.364;17.008;2024-01-15T14:53:03;105.25;;;43.88;;
76202;SDS011;64985;46.364;17.008;2024-01-15T14:56:08;116.00;;;48.67;;
76202;SDS011;64985;46.364;17.008;2024-01-15T14:59:11;104.72;;;43.65;;
76202;SDS011;64985;46.364;17.008;2024-01-15T15:02:14;103.78;;;43.22;;
76202;SDS011;64985;46.364;17.008;2024-01-15T15:05:17;112.45;;;45.83;;
76202;SDS011;64985;46.364;17.008;2024-01-15T15:08:21;106.32;;;44.88;;
76202;SDS011;64985;46.364;17.008;2024-01-15T15:11:23;93.13;;;40.97;;
76202;SDS011;64985;46.364;17.008;2024-01-15T15:14:26;94.55;;;39.80;;
76202;SDS011;64985;46.364;17.008;2024-01-15T15:17:28;91.97;;;39.55;;
76202;SDS011;64985;46.364;17.008;2024-01-15T15:20:30;78.88;;;36.78;;
76202;SDS011;64985;46.364;17.008;2024-01-15T15:23:33;86.90;;;39.15;;
76202;SDS011;64985;46.364;17.008;2024-01-15T15:26:35;89.40;;;39.17;;
76202;SDS011;64985;46.364;17.008;2024-01-15T15:29:38;109.40;;;43.47;;
76202;SDS011;64985;46.364;17.008;2024-01-15T15:32:40;86.03;;;37.75;;
76202;SDS011;64985;46.364;17.008;2024-01-15T15:35:42;80.13;;;35.83;;
76202;SDS011;64985;46.364;17.008;2024-01-15T15:38:44;80.28;;;35.67;;
76202;SDS011;64985;46.364;17.008;2024-01-15T15:41:47;87.22;;;36.97;;
76202;SDS011;64985;46.364;17.008;2024-01-15T15:44:51;87.15;;;36.67;;
76202;SDS011;64985;46.364;17.008;2024-01-15T15:47:58;92.60;;;39.50;;
76202;SDS011;64985;46.364;17.008;2024-01-15T15:51:00;102.78;;;43.20;;
76202;SDS011;64985;46.364;17.008;2024-01-15T15:54:05;109.68;;;46.70;;
76202;SDS011;64985;46.364;17.008;2024-01-15T15:57:07;89.65;;;38.70;;
76202;SDS011;64985;46.364;17.008;2024-01-15T16:00:10;96.50;;;40.05;;
76202;SDS011;64985;46.364;17.008;2024-01-15T16:03:13;76.80;;;33.55;;
76202;SDS011;64985;46.364;17.008;2024-01-15T16:06:16;77.60;;;33.75;;
76202;SDS011;64985;46.364;17.008;2024-01-15T16:09:18;84.88;;;35.25;;
76202;SDS011;64985;46.364;17.008;2024-01-15T16:12:21;111.43;;;45.92;;
76202;SDS011;64985;46.364;17.008;2024-01-15T16:15:23;92.38;;;39.05;;
76202;SDS011;64985;46.364;17.008;2024-01-15T16:18:25;95.00;;;38.65;;
76202;SDS011;64985;46.364;17.008;2024-01-15T16:21:48;83.75;;;33.78;;
76202;SDS011;64985;46.364;17.008;2024-01-15T16:25:11;74.40;;;32.20;;
76202;SDS011;64985;46.364;17.008;2024-01-15T16:28:14;69.45;;;29.55;;
76202;SDS011;64985;46.364;17.008;2024-01-15T16:31:17;73.07;;;29.40;;
76202;SDS011;64985;46.364;17.008;2024-01-15T16:34:19;75.25;;;32.67;;
76202;SDS011;64985;46.364;17.008;2024-01-15T16:37:22;134.98;;;53.90;;
76202;SDS011;64985;46.364;17.008;2024-01-15T16:40:24;149.27;;;61.17;;
76202;SDS011;64985;46.364;17.008;2024-01-15T16:43:27;207.40;;;81.97;;
76202;SDS011;64985;46.364;17.008;2024-01-15T16:46:29;177.70;;;68.90;;
76202;SDS011;64985;46.364;17.008;2024-01-15T16:49:32;161.35;;;64.95;;
76202;SDS011;64985;46.364;17.008;2024-01-15T16:52:34;139.50;;;57.30;;
76202;SDS011;64985;46.364;17.008;2024-01-15T16:55:37;152.02;;;59.60;;
76202;SDS011;64985;46.364;17.008;2024-01-15T16:58:39;162.10;;;64.68;;
76202;SDS011;64985;46.364;17.008;2024-01-15T17:01:42;200.70;;;81.97;;
76202;SDS011;64985;46.364;17.008;2024-01-15T17:04:45;170.05;;;67.55;;
76202;SDS011;64985;46.364;17.008;2024-01-15T17:07:47;177.98;;;71.95;;
76202;SDS011;64985;46.364;17.008;2024-01-15T17:10:50;173.85;;;64.72;;
76202;SDS011;64985;46.364;17.008;2024-01-15T17:13:52;172.77;;;64.35;;
76202;SDS011;64985;46.364;17.008;2024-01-15T17:16:54;151.07;;;57.97;;
76202;SDS011;64985;46.364;17.008;2024-01-15T17:19:57;146.90;;;57.80;;
76202;SDS011;64985;46.364;17.008;2024-01-15T17:23:00;142.63;;;55.20;;
76202;SDS011;64985;46.364;17.008;2024-01-15T17:26:02;145.80;;;55.47;;
76202;SDS011;64985;46.364;17.008;2024-01-15T17:29:05;144.07;;;54.53;;
76202;SDS011;64985;46.364;17.008;2024-01-15T17:32:07;142.60;;;54.58;;